sensor_id;sensor_type;location;lat;lon;timestamp;P1;durP1;ratioP1;P2;durP2;ratioP2
72319;SDS011;60269;52.502;16.732;2022-09-21T00:01:23;6.38;;;1.33;;
72319;SDS011;60269;52.502;16.732;2022-09-21T00:05:04;5.60;;;1.37;;
72319;SDS011;60269;52.502;16.732;2022-09-21T00:08:56;6.27;;;1.73;;
72319;SDS011;60269;52.502;16.732;2022-09-21T00:12:35;6.47;;;1.15;;
72319;SDS011;60269;52.502;16.732;2022-09-21T00:16:33;4.35;;;1.15;;
72319;SDS011;60269;52.502;16.732;2022-09-21T00:20:32;6.97;;;1.40;;
72319;SDS011;60269;52.502;16.732;2022-09-21T00:24:32;5.40;;;1.40;;
72319;SDS011;60269;52.502;16.732;2022-09-21T00:28:12;6.15;;;1.60;;
72319;SDS011;60269;52.502;16.732;2022-09-21T00:32:10;6.28;;;1.30;;
72319;SDS011;60269;52.502;16.732;2022-09-21T00:35:49;8.50;;;1.30;;
72319;SDS011;60269;52.502;16.732;2022-09-21T00:39:40;7.10;;;1.80;;
72319;SDS011;60269;52.502;16.732;2022-09-21T00:43:19;4.90;;;1.25;;
72319;SDS011;60269;52.502;16.732;2022-09-21T00:47:21;6.18;;;1.67;;
72319;SDS011;60269;52.502;16.732;2022-09-21T00:51:04;5.57;;;1.17;;
72319;SDS011;60269;52.502;16.732;2022-09-21T00:55:14;6.20;;;1.50;;
72319;SDS011;60269;52.502;16.732;2022-09-21T00:59:00;6.68;;;1.88;;
72319;SDS011;60269;52.502;16.732;2022-09-21T01:02:59;5.43;;;1.13;;
72319;SDS011;60269;52.502;16.732;2022-09-21T01:06:38;5.20;;;1.33;;
72319;SDS011;60269;52.502;16.732;2022-09-21T01:10:39;6.67;;;1.00;;
72319;SDS011;60269;52.502;16.732;2022-09-21T01:18:57;6.25;;;1.23;;
72319;SDS011;60269;52.502;16.732;2022-09-21T01:26:53;7.17;;;1.60;;
72319;SDS011;60269;52.502;16.732;2022-09-21T01:30:50;9.93;;;1.50;;
72319;SDS011;60269;52.502;16.732;2022-09-21T01:34:52;5.10;;;1.42;;
72319;SDS011;60269;52.502;16.732;2022-09-21T01:38:58;7.03;;;1.03;;
72319;SDS011;60269;52.502;16.732;2022-09-21T01:42:43;5.80;;;1.53;;
72319;SDS011;60269;52.502;16.732;2022-09-21T01:46:37;5.40;;;1.30;;
72319;SDS011;60269;52.502;16.732;2022-09-21T01:50:24;8.00;;;1.52;;
72319;SDS011;60269;52.502;16.732;2022-09-21T01:54:19;5.87;;;1.73;;
72319;SDS011;60269;52.502;16.732;2022-09-21T01:58:12;5.80;;;1.30;;
72319;SDS011;60269;52.502;16.732;2022-09-21T02:02:12;5.38;;;1.48;;
72319;SDS011;60269;52.502;16.732;2022-09-21T02:06:02;6.88;;;1.40;;
72319;SDS011;60269;52.502;16.732;2022-09-21T02:09:49;6.37;;;1.37;;
72319;SDS011;60269;52.502;16.732;2022-09-21T02:13:35;6.67;;;1.70;;
72319;SDS011;60269;52.502;16.732;2022-09-21T02:17:35;5.88;;;1.38;;
72319;SDS011;60269;52.502;16.732;2022-09-21T02:25:26;7.43;;;1.50;;
72319;SDS011;60269;52.502;16.732;2022-09-21T02:29:22;8.17;;;1.57;;
72319;SDS011;60269;52.502;16.732;2022-09-21T02:33:27;5.22;;;1.20;;
72319;SDS011;60269;52.502;16.732;2022-09-21T02:37:10;6.45;;;1.50;;
72319;SDS011;60269;52.502;16.732;2022-09-21T02:41:09;6.05;;;1.00;;
72319;SDS011;60269;52.502;16.732;2022-09-21T02:45:10;6.57;;;1.40;;
72319;SDS011;60269;52.502;16.732;2022-09-21T02:49:16;5.63;;;1.58;;
72319;SDS011;60269;52.502;16.732;2022-09-21T02:52:58;5.82;;;1.10;;
72319;SDS011;60269;52.502;16.732;2022-09-21T02:56:52;6.45;;;1.20;;
72319;SDS011;60269;52.502;16.732;2022-09-21T03:00:32;5.20;;;1.30;;
72319;SDS011;60269;52.502;16.732;2022-09-21T03:04:33;6.00;;;1.35;;
72319;SDS011;60269;52.502;16.732;2022-09-21T03:08:11;6.30;;;1.25;;
72319;SDS011;60269;52.502;16.732;2022-09-21T03:12:03;5.87;;;1.40;;
72319;SDS011;60269;52.502;16.732;2022-09-21T03:15:42;6.10;;;1.33;;
72319;SDS011;60269;52.502;16.732;2022-09-21T03:19:41;6.20;;;1.35;;
72319;SDS011;60269;52.502;16.732;2022-09-21T03:23:20;5.93;;;1.27;;
72319;SDS011;60269;52.502;16.732;2022-09-21T03:27:15;5.93;;;1.40;;
72319;SDS011;60269;52.502;16.732;2022-09-21T03:30:54;4.53;;;1.20;;
72319;SDS011;60269;52.502;16.732;2022-09-21T03:34:53;7.03;;;1.30;;
72319;SDS011;60269;52.502;16.732;2022-09-21T03:38:52;5.97;;;1.63;;
72319;SDS011;60269;52.502;16.732;2022-09-21T03:42:51;5.70;;;1.40;;
72319;SDS011;60269;52.502;16.732;2022-09-21T03:46:30;6.77;;;1.30;;
72319;SDS011;60269;52.502;16.732;2022-09-21T03:50:29;6.35;;;1.35;;
72319;SDS011;60269;52.502;16.732;2022-09-21T03:54:28;10.75;;;1.70;;
72319;SDS011;60269;52.502;16.732;2022-09-21T03:58:27;5.35;;;1.55;;
72319;SDS011;60269;52.502;16.732;2022-09-21T04:02:05;6.77;;;2.00;;
72319;SDS011;60269;52.502;16.732;2022-09-21T04:06:08;6.60;;;1.60;;
72319;SDS011;60269;52.502;16.732;2022-09-21T04:09:53;6.93;;;1.55;;
72319;SDS011;60269;52.502;16.732;2022-09-21T04:13:39;7.10;;;1.88;;
72319;SDS011;60269;52.502;16.732;2022-09-21T04:17:26;6.10;;;1.30;;
72319;SDS011;60269;52.502;16.732;2022-09-21T04:21:18;6.80;;;2.13;;
72319;SDS011;60269;52.502;16.732;2022-09-21T04:25:05;6.90;;;1.40;;
72319;SDS011;60269;52.502;16.732;2022-09-21T04:28:51;5.68;;;1.30;;
72319;SDS011;60269;52.502;16.732;2022-09-21T04:32:36;6.27;;;1.50;;
72319;SDS011;60269;52.502;16.732;2022-09-21T04:36:28;6.30;;;1.35;;
72319;SDS011;60269;52.502;16.732;2022-09-21T04:40:13;6.13;;;1.58;;
72319;SDS011;60269;52.502;16.732;2022-09-21T04:44:00;6.67;;;1.87;;
72319;SDS011;60269;52.502;16.732;2022-09-21T04:47:45;5.93;;;1.50;;
72319;SDS011;60269;52.502;16.732;2022-09-21T04:51:37;5.45;;;1.40;;
72319;SDS011;60269;52.502;16.732;2022-09-21T04:55:22;4.90;;;1.05;;
72319;SDS011;60269;52.502;16.732;2022-09-21T04:59:07;5.57;;;1.50;;
72319;SDS011;60269;52.502;16.732;2022-09-21T05:02:52;6.67;;;1.67;;
72319;SDS011;60269;52.502;16.732;2022-09-21T05:06:44;5.75;;;1.42;;
72319;SDS011;60269;52.502;16.732;2022-09-21T05:10:29;5.90;;;1.40;;
72319;SDS011;60269;52.502;16.732;2022-09-21T05:14:14;6.70;;;1.42;;
72319;SDS011;60269;52.502;16.732;2022-09-21T05:17:59;5.63;;;1.47;;
72319;SDS011;60269;52.502;16.732;2022-09-21T05:21:51;8.50;;;1.33;;
72319;SDS011;60269;52.502;16.732;2022-09-21T05:25:29;5.72;;;1.30;;
72319;SDS011;60269;52.502;16.732;2022-09-21T05:29:21;4.18;;;0.98;;
72319;SDS011;60269;52.502;16.732;2022-09-21T05:33:06;6.20;;;1.37;;
72319;SDS011;60269;52.502;16.732;2022-09-21T05:37:11;5.90;;;1.45;;
72319;SDS011;60269;52.502;16.732;2022-09-21T05:41:24;4.85;;;1.35;;
72319;SDS011;60269;52.502;16.732;2022-09-21T05:45:23;5.65;;;1.38;;
72319;SDS011;60269;52.502;16.732;2022-09-21T05:49:14;5.57;;;1.30;;
72319;SDS011;60269;52.502;16.732;2022-09-21T05:57:50;6.22;;;1.42;;
72319;SDS011;60269;52.502;16.732;2022-09-21T06:02:01;4.07;;;0.98;;
72319;SDS011;60269;52.502;16.732;2022-09-21T06:05:46;5.60;;;1.27;;
72319;SDS011;60269;52.502;16.732;2022-09-21T06:09:44;6.55;;;1.42;;
72319;SDS011;60269;52.502;16.732;2022-09-21T06:13:29;5.78;;;1.20;;
72319;SDS011;60269;52.502;16.732;2022-09-21T06:17:14;5.57;;;1.52;;
72319;SDS011;60269;52.502;16.732;2022-09-21T06:20:59;5.43;;;1.27;;
72319;SDS011;60269;52.502;16.732;2022-09-21T06:24:51;6.45;;;1.42;;
72319;SDS011;60269;52.502;16.732;2022-09-21T06:28:36;4.47;;;1.08;;
72319;SDS011;60269;52.502;16.732;2022-09-21T06:32:21;4.93;;;1.02;;
72319;SDS011;60269;52.502;16.732;2022-09-21T06:36:06;4.93;;;1.17;;
72319;SDS011;60269;52.502;16.732;2022-09-21T06:39:58;5.38;;;1.23;;
72319;SDS011;60269;52.502;16.732;2022-09-21T06:43:43;4.72;;;1.42;;
72319;SDS011;60269;52.502;16.732;2022-09-21T06:47:36;4.70;;;0.85;;
72319;SDS011;60269;52.502;16.732;2022-09-21T06:51:21;4.07;;;0.90;;
72319;SDS011;60269;52.502;16.732;2022-09-21T06:55:13;7.27;;;1.50;;
72319;SDS011;60269;52.502;16.732;2022-09-21T06:58:58;4.57;;;1.40;;
72319;SDS011;60269;52.502;16.732;2022-09-21T07:02:45;4.90;;;1.10;;
72319;SDS011;60269;52.502;16.732;2022-09-21T07:06:30;4.78;;;1.13;;
72319;SDS011;60269;52.502;16.732;2022-09-21T07:10:22;4.57;;;1.23;;
72319;SDS011;60269;52.502;16.732;2022-09-21T07:14:00;3.72;;;1.10;;
72319;SDS011;60269;52.502;16.732;2022-09-21T07:17:52;3.88;;;1.10;;
72319;SDS011;60269;52.502;16.732;2022-09-21T07:21:44;4.25;;;1.17;;
72319;SDS011;60269;52.502;16.732;2022-09-21T07:25:36;4.43;;;0.97;;
72319;SDS011;60269;52.502;16.732;2022-09-21T07:29:14;4.65;;;1.25;;
72319;SDS011;60269;52.502;16.732;2022-09-21T07:33:06;4.00;;;0.82;;
72319;SDS011;60269;52.502;16.732;2022-09-21T07:36:51;5.47;;;0.90;;
72319;SDS011;60269;52.502;16.732;2022-09-21T07:40:43;4.65;;;1.02;;
72319;SDS011;60269;52.502;16.732;2022-09-21T07:44:21;4.43;;;1.07;;
72319;SDS011;60269;52.502;16.732;2022-09-21T07:48:13;4.95;;;0.90;;
72319;SDS011;60269;52.502;16.732;2022-09-21T07:51:58;4.93;;;1.17;;
72319;SDS011;60269;52.502;16.732;2022-09-21T07:55:50;4.90;;;1.10;;
72319;SDS011;60269;52.502;16.732;2022-09-21T07:59:28;5.25;;;1.30;;
72319;SDS011;60269;52.502;16.732;2022-09-21T08:03:20;5.33;;;1.10;;
72319;SDS011;60269;52.502;16.732;2022-09-21T08:07:05;3.95;;;0.70;;
72319;SDS011;60269;52.502;16.732;2022-09-21T08:11:05;5.90;;;1.20;;
72319;SDS011;60269;52.502;16.732;2022-09-21T08:15:04;5.05;;;1.20;;
72319;SDS011;60269;52.502;16.732;2022-09-21T08:19:01;5.43;;;1.17;;
72319;SDS011;60269;52.502;16.732;2022-09-21T08:22:59;4.60;;;0.77;;
72319;SDS011;60269;52.502;16.732;2022-09-21T08:26:39;6.22;;;1.10;;
72319;SDS011;60269;52.502;16.732;2022-09-21T08:30:30;4.90;;;1.30;;
72319;SDS011;60269;52.502;16.732;2022-09-21T08:34:09;5.10;;;1.10;;
72319;SDS011;60269;52.502;16.732;2022-09-21T08:38:07;6.57;;;1.33;;
72319;SDS011;60269;52.502;16.732;2022-09-21T08:45:49;4.50;;;1.30;;
72319;SDS011;60269;52.502;16.732;2022-09-21T08:49:28;4.47;;;1.40;;
72319;SDS011;60269;52.502;16.732;2022-09-21T08:53:35;4.68;;;1.27;;
72319;SDS011;60269;52.502;16.732;2022-09-21T08:57:37;4.20;;;1.10;;
72319;SDS011;60269;52.502;16.732;2022-09-21T09:05:39;4.97;;;1.33;;
72319;SDS011;60269;52.502;16.732;2022-09-21T09:17:47;8.10;;;1.43;;
72319;SDS011;60269;52.502;16.732;2022-09-21T09:21:32;4.68;;;1.08;;
72319;SDS011;60269;52.502;16.732;2022-09-21T09:25:36;5.50;;;1.35;;
72319;SDS011;60269;52.502;16.732;2022-09-21T09:29:46;3.15;;;0.80;;
72319;SDS011;60269;52.502;16.732;2022-09-21T09:33:54;5.10;;;1.10;;
72319;SDS011;60269;52.502;16.732;2022-09-21T09:37:36;4.53;;;0.88;;
72319;SDS011;60269;52.502;16.732;2022-09-21T09:50:24;3.60;;;0.75;;
72319;SDS011;60269;52.502;16.732;2022-09-21T09:54:12;3.90;;;0.93;;
72319;SDS011;60269;52.502;16.732;2022-09-21T09:58:18;2.80;;;0.77;;
72319;SDS011;60269;52.502;16.732;2022-09-21T10:02:32;4.40;;;0.95;;
72319;SDS011;60269;52.502;16.732;2022-09-21T10:06:29;3.45;;;0.60;;
72319;SDS011;60269;52.502;16.732;2022-09-21T10:10:34;4.63;;;1.20;;
72319;SDS011;60269;52.502;16.732;2022-09-21T10:14:21;3.50;;;0.80;;
72319;SDS011;60269;52.502;16.732;2022-09-21T10:18:32;4.10;;;0.90;;
72319;SDS011;60269;52.502;16.732;2022-09-21T10:22:35;3.53;;;1.23;;
72319;SDS011;60269;52.502;16.732;2022-09-21T10:26:14;3.35;;;0.60;;
72319;SDS011;60269;52.502;16.732;2022-09-21T10:30:34;4.63;;;0.90;;
72319;SDS011;60269;52.502;16.732;2022-09-21T10:34:15;3.10;;;0.80;;
72319;SDS011;60269;52.502;16.732;2022-09-21T10:38:11;3.38;;;0.70;;
72319;SDS011;60269;52.502;16.732;2022-09-21T10:42:16;3.22;;;0.82;;
72319;SDS011;60269;52.502;16.732;2022-09-21T10:46:15;4.45;;;0.80;;
72319;SDS011;60269;52.502;16.732;2022-09-21T10:49:55;4.00;;;1.00;;
72319;SDS011;60269;52.502;16.732;2022-09-21T10:53:48;4.07;;;0.80;;
72319;SDS011;60269;52.502;16.732;2022-09-21T10:57:27;5.13;;;1.00;;
72319;SDS011;60269;52.502;16.732;2022-09-21T11:01:27;4.10;;;0.95;;
72319;SDS011;60269;52.502;16.732;2022-09-21T11:05:30;3.50;;;0.85;;
72319;SDS011;60269;52.502;16.732;2022-09-21T11:09:34;5.00;;;1.17;;
72319;SDS011;60269;52.502;16.732;2022-09-21T11:21:15;4.53;;;1.17;;
72319;SDS011;60269;52.502;16.732;2022-09-21T11:25:29;6.20;;;1.02;;
72319;SDS011;60269;52.502;16.732;2022-09-21T11:29:26;4.60;;;0.83;;
72319;SDS011;60269;52.502;16.732;2022-09-21T11:58:49;3.30;;;0.60;;
72319;SDS011;60269;52.502;16.732;2022-09-21T12:15:15;2.92;;;0.47;;
72319;SDS011;60269;52.502;16.732;2022-09-21T12:19:05;3.03;;;0.98;;
72319;SDS011;60269;52.502;16.732;2022-09-21T12:23:07;5.78;;;0.63;;
72319;SDS011;60269;52.502;16.732;2022-09-21T12:26:56;2.80;;;0.70;;
72319;SDS011;60269;52.502;16.732;2022-09-21T12:30:53;2.57;;;0.50;;
72319;SDS011;60269;52.502;16.732;2022-09-21T12:34:39;4.20;;;0.80;;
72319;SDS011;60269;52.502;16.732;2022-09-21T12:38:47;3.22;;;0.85;;
72319;SDS011;60269;52.502;16.732;2022-09-21T12:47:12;3.13;;;0.60;;
72319;SDS011;60269;52.502;16.732;2022-09-21T12:50:57;1.70;;;0.40;;
72319;SDS011;60269;52.502;16.732;2022-09-21T13:03:48;2.95;;;0.90;;
72319;SDS011;60269;52.502;16.732;2022-09-21T13:07:56;3.03;;;0.50;;
72319;SDS011;60269;52.502;16.732;2022-09-21T13:16:27;3.63;;;0.60;;
72319;SDS011;60269;52.502;16.732;2022-09-21T13:20:20;3.70;;;0.93;;
72319;SDS011;60269;52.502;16.732;2022-09-21T13:24:06;5.50;;;0.70;;
72319;SDS011;60269;52.502;16.732;2022-09-21T13:28:18;6.17;;;2.13;;
72319;SDS011;60269;52.502;16.732;2022-09-21T13:48:12;8.97;;;2.97;;
72319;SDS011;60269;52.502;16.732;2022-09-21T13:56:17;9.45;;;1.25;;
72319;SDS011;60269;52.502;16.732;2022-09-21T14:04:03;3.05;;;0.50;;
72319;SDS011;60269;52.502;16.732;2022-09-21T14:11:59;3.92;;;1.05;;
72319;SDS011;60269;52.502;16.732;2022-09-21T14:15:53;4.47;;;1.00;;
72319;SDS011;60269;52.502;16.732;2022-09-21T14:27:17;2.53;;;0.50;;
72319;SDS011;60269;52.502;16.732;2022-09-21T14:31:14;3.72;;;0.55;;
72319;SDS011;60269;52.502;16.732;2022-09-21T14:35:08;2.00;;;0.45;;
72319;SDS011;60269;52.502;16.732;2022-09-21T14:43:30;1.83;;;0.30;;
72319;SDS011;60269;52.502;16.732;2022-09-21T14:56:16;1.88;;;0.40;;
72319;SDS011;60269;52.502;16.732;2022-09-21T15:00:15;2.65;;;0.50;;
72319;SDS011;60269;52.502;16.732;2022-09-21T15:16:48;2.47;;;0.57;;
72319;SDS011;60269;52.502;16.732;2022-09-21T15:20:33;2.92;;;0.90;;
72319;SDS011;60269;52.502;16.732;2022-09-21T15:24:23;1.90;;;0.60;;
72319;SDS011;60269;52.502;16.732;2022-09-21T15:28:18;3.45;;;0.60;;
72319;SDS011;60269;52.502;16.732;2022-09-21T15:31:57;3.20;;;0.70;;
72319;SDS011;60269;52.502;16.732;2022-09-21T15:35:50;4.28;;;0.82;;
72319;SDS011;60269;52.502;16.732;2022-09-21T15:39:38;5.43;;;0.90;;
72319;SDS011;60269;52.502;16.732;2022-09-21T15:43:29;4.03;;;0.83;;
72319;SDS011;60269;52.502;16.732;2022-09-21T15:47:09;2.83;;;0.80;;
72319;SDS011;60269;52.502;16.732;2022-09-21T15:51:08;2.90;;;0.60;;
72319;SDS011;60269;52.502;16.732;2022-09-21T15:55:03;2.83;;;0.70;;
72319;SDS011;60269;52.502;16.732;2022-09-21T15:58:58;4.67;;;0.77;;
72319;SDS011;60269;52.502;16.732;2022-09-21T16:02:56;4.38;;;1.02;;
72319;SDS011;60269;52.502;16.732;2022-09-21T16:10:42;5.88;;;0.80;;
72319;SDS011;60269;52.502;16.732;2022-09-21T16:14:26;6.67;;;1.20;;
72319;SDS011;60269;52.502;16.732;2022-09-21T16:18:40;4.27;;;0.90;;
72319;SDS011;60269;52.502;16.732;2022-09-21T16:22:40;8.10;;;0.90;;
72319;SDS011;60269;52.502;16.732;2022-09-21T16:26:33;4.68;;;1.17;;
72319;SDS011;60269;52.502;16.732;2022-09-21T16:34:35;5.17;;;1.40;;
72319;SDS011;60269;52.502;16.732;2022-09-21T16:38:26;5.93;;;1.07;;
72319;SDS011;60269;52.502;16.732;2022-09-21T16:42:05;7.70;;;2.00;;
72319;SDS011;60269;52.502;16.732;2022-09-21T16:45:56;7.43;;;1.25;;
72319;SDS011;60269;52.502;16.732;2022-09-21T16:49:42;4.18;;;0.95;;
72319;SDS011;60269;52.502;16.732;2022-09-21T16:53:41;5.50;;;1.07;;
72319;SDS011;60269;52.502;16.732;2022-09-21T16:57:40;5.20;;;1.17;;
72319;SDS011;60269;52.502;16.732;2022-09-21T17:01:24;6.82;;;1.55;;
72319;SDS011;60269;52.502;16.732;2022-09-21T17:05:22;6.75;;;1.80;;
72319;SDS011;60269;52.502;16.732;2022-09-21T17:13:23;13.95;;;4.55;;
72319;SDS011;60269;52.502;16.732;2022-09-21T17:17:15;13.20;;;3.80;;
72319;SDS011;60269;52.502;16.732;2022-09-21T17:21:16;8.57;;;2.70;;
72319;SDS011;60269;52.502;16.732;2022-09-21T17:24:55;11.77;;;2.53;;
72319;SDS011;60269;52.502;16.732;2022-09-21T17:28:46;7.55;;;2.63;;
72319;SDS011;60269;52.502;16.732;2022-09-21T17:32:25;9.43;;;3.00;;
72319;SDS011;60269;52.502;16.732;2022-09-21T17:36:23;8.77;;;2.60;;
72319;SDS011;60269;52.502;16.732;2022-09-21T17:40:02;8.10;;;2.57;;
72319;SDS011;60269;52.502;16.732;2022-09-21T17:44:34;12.50;;;5.13;;
72319;SDS011;60269;52.502;16.732;2022-09-21T17:48:18;16.45;;;7.65;;
72319;SDS011;60269;52.502;16.732;2022-09-21T17:52:18;7.57;;;2.97;;
72319;SDS011;60269;52.502;16.732;2022-09-21T17:56:37;5.60;;;1.70;;
72319;SDS011;60269;52.502;16.732;2022-09-21T18:00:48;6.45;;;2.60;;
72319;SDS011;60269;52.502;16.732;2022-09-21T18:04:38;10.27;;;3.35;;
72319;SDS011;60269;52.502;16.732;2022-09-21T18:08:37;7.93;;;2.70;;
72319;SDS011;60269;52.502;16.732;2022-09-21T18:17:00;11.43;;;3.55;;
72319;SDS011;60269;52.502;16.732;2022-09-21T18:21:21;16.33;;;4.07;;
72319;SDS011;60269;52.502;16.732;2022-09-21T18:25:14;12.97;;;3.80;;
72319;SDS011;60269;52.502;16.732;2022-09-21T18:29:05;15.83;;;4.30;;
72319;SDS011;60269;52.502;16.732;2022-09-21T18:33:20;12.75;;;4.50;;
72319;SDS011;60269;52.502;16.732;2022-09-21T18:41:10;12.47;;;4.73;;
72319;SDS011;60269;52.502;16.732;2022-09-21T18:45:23;13.47;;;4.50;;
72319;SDS011;60269;52.502;16.732;2022-09-21T18:53:24;12.32;;;3.95;;
72319;SDS011;60269;52.502;16.732;2022-09-21T18:57:33;7.60;;;2.40;;
72319;SDS011;60269;52.502;16.732;2022-09-21T19:01:18;9.17;;;2.83;;
72319;SDS011;60269;52.502;16.732;2022-09-21T19:05:13;10.52;;;3.00;;
72319;SDS011;60269;52.502;16.732;2022-09-21T19:13:41;8.57;;;2.85;;
72319;SDS011;60269;52.502;16.732;2022-09-21T19:21:44;10.70;;;4.15;;
72319;SDS011;60269;52.502;16.732;2022-09-21T19:25:33;15.35;;;5.47;;
72319;SDS011;60269;52.502;16.732;2022-09-21T19:30:12;18.67;;;6.83;;
72319;SDS011;60269;52.502;16.732;2022-09-21T19:34:37;21.00;;;6.30;;
72319;SDS011;60269;52.502;16.732;2022-09-21T19:38:29;12.93;;;3.90;;
72319;SDS011;60269;52.502;16.732;2022-09-21T19:42:12;11.52;;;3.28;;
72319;SDS011;60269;52.502;16.732;2022-09-21T19:46:57;9.67;;;3.00;;
72319;SDS011;60269;52.502;16.732;2022-09-21T19:54:52;10.45;;;2.65;;
72319;SDS011;60269;52.502;16.732;2022-09-21T19:59:09;9.70;;;2.22;;
72319;SDS011;60269;52.502;16.732;2022-09-21T20:03:19;11.73;;;3.30;;
72319;SDS011;60269;52.502;16.732;2022-09-21T20:23:28;9.37;;;2.90;;
72319;SDS011;60269;52.502;16.732;2022-09-21T20:27:34;7.28;;;2.10;;
72319;SDS011;60269;52.502;16.732;2022-09-21T20:31:30;9.00;;;2.67;;
72319;SDS011;60269;52.502;16.732;2022-09-21T20:35:13;8.77;;;2.40;;
72319;SDS011;60269;52.502;16.732;2022-09-21T20:39:07;9.33;;;2.83;;
72319;SDS011;60269;52.502;16.732;2022-09-21T20:42:45;12.48;;;3.90;;
72319;SDS011;60269;52.502;16.732;2022-09-21T20:46:37;8.55;;;2.85;;
72319;SDS011;60269;52.502;16.732;2022-09-21T20:50:22;11.00;;;3.27;;
72319;SDS011;60269;52.502;16.732;2022-09-21T20:54:14;12.37;;;3.60;;
72319;SDS011;60269;52.502;16.732;2022-09-21T20:57:52;15.15;;;4.63;;
72319;SDS011;60269;52.502;16.732;2022-09-21T21:01:44;11.00;;;3.20;;
72319;SDS011;60269;52.502;16.732;2022-09-21T21:05:29;9.53;;;2.53;;
72319;SDS011;60269;52.502;16.732;2022-09-21T21:09:21;7.50;;;2.70;;
72319;SDS011;60269;52.502;16.732;2022-09-21T21:12:59;7.22;;;2.40;;
72319;SDS011;60269;52.502;16.732;2022-09-21T21:16:59;7.40;;;2.20;;
72319;SDS011;60269;52.502;16.732;2022-09-21T21:20:38;7.77;;;2.83;;
72319;SDS011;60269;52.502;16.732;2022-09-21T21:24:30;11.47;;;2.83;;
72319;SDS011;60269;52.502;16.732;2022-09-21T21:28:17;10.80;;;3.30;;
72319;SDS011;60269;52.502;16.732;2022-09-21T21:32:12;6.75;;;2.30;;
72319;SDS011;60269;52.502;16.732;2022-09-21T21:35:51;9.33;;;2.60;;
72319;SDS011;60269;52.502;16.732;2022-09-21T21:39:43;9.93;;;2.73;;
72319;SDS011;60269;52.502;16.732;2022-09-21T21:43:21;8.60;;;2.45;;
72319;SDS011;60269;52.502;16.732;2022-09-21T21:47:20;9.35;;;2.35;;
72319;SDS011;60269;52.502;16.732;2022-09-21T21:51:24;8.30;;;2.50;;
72319;SDS011;60269;52.502;16.732;2022-09-21T21:55:23;6.83;;;2.00;;
72319;SDS011;60269;52.502;16.732;2022-09-21T21:59:01;8.20;;;2.05;;
72319;SDS011;60269;52.502;16.732;2022-09-21T22:03:02;9.82;;;2.33;;
72319;SDS011;60269;52.502;16.732;2022-09-21T22:06:41;8.20;;;2.63;;
72319;SDS011;60269;52.502;16.732;2022-09-21T22:10:33;8.13;;;2.60;;
72319;SDS011;60269;52.502;16.732;2022-09-21T22:14:18;9.75;;;3.15;;
72319;SDS011;60269;52.502;16.732;2022-09-21T22:18:17;8.43;;;2.67;;
72319;SDS011;60269;52.502;16.732;2022-09-21T22:22:02;9.03;;;2.63;;
72319;SDS011;60269;52.502;16.732;2022-09-21T22:25:47;7.73;;;2.20;;
72319;SDS011;60269;52.502;16.732;2022-09-21T22:29:32;9.63;;;2.20;;
72319;SDS011;60269;52.502;16.732;2022-09-21T22:33:24;6.28;;;1.83;;
72319;SDS011;60269;52.502;16.732;2022-09-21T22:37:08;9.50;;;2.70;;
72319;SDS011;60269;52.502;16.732;2022-09-21T22:40:46;12.33;;;3.00;;
72319;SDS011;60269;52.502;16.732;2022-09-21T22:44:38;6.88;;;1.85;;
72319;SDS011;60269;52.502;16.732;2022-09-21T22:48:23;8.85;;;2.20;;
72319;SDS011;60269;52.502;16.732;2022-09-21T22:52:08;7.53;;;2.30;;
72319;SDS011;60269;52.502;16.732;2022-09-21T22:56:00;10.93;;;2.43;;
72319;SDS011;60269;52.502;16.732;2022-09-21T22:59:56;9.43;;;1.85;;
72319;SDS011;60269;52.502;16.732;2022-09-21T23:03:41;5.55;;;1.58;;
72319;SDS011;60269;52.502;16.732;2022-09-21T23:07:26;7.60;;;2.20;;
72319;SDS011;60269;52.502;16.732;2022-09-21T23:11:12;10.33;;;1.83;;
72319;SDS011;60269;52.502;16.732;2022-09-21T23:15:06;6.97;;;1.80;;
72319;SDS011;60269;52.502;16.732;2022-09-21T23:18:52;8.13;;;1.90;;
72319;SDS011;60269;52.502;16.732;2022-09-21T23:22:38;7.20;;;1.90;;
72319;SDS011;60269;52.502;16.732;2022-09-21T23:26:23;7.50;;;1.73;;
72319;SDS011;60269;52.502;16.732;2022-09-21T23:30:15;8.95;;;1.95;;
72319;SDS011;60269;52.502;16.732;2022-09-21T23:34:07;7.22;;;1.98;;
72319;SDS011;60269;52.502;16.732;2022-09-21T23:37:54;5.90;;;1.70;;
72319;SDS011;60269;52.502;16.732;2022-09-21T23:41:39;6.50;;;1.70;;
72319;SDS011;60269;52.502;16.732;2022-09-21T23:45:31;11.02;;;2.50;;
72319;SDS011;60269;52.502;16.732;2022-09-21T23:49:16;9.23;;;2.63;;
72319;SDS011;60269;52.502;16.732;2022-09-21T23:53:01;7.90;;;2.43;;
72319;SDS011;60269;52.502;16.732;2022-09-21T23:56:47;7.93;;;2.03;;
